Delavan, WI (53115)

09:38 AM CST del 03 Dicembre 2016 (GMT -0600)
Delavan Township | | Change Station

Alt. 902 ft 42.61 °N, 88.62 °W | Updated 5 seconds ago

Overcast
Coperto
31.6 °F
Sembra 32 °F
N
2.9
Vento Variabile Vento da OSO
Gusts 2.9 mph

Oggi
Massima -- | Minima -- °F
--% Possibilità di precip.
Ieri
Massima -- | Minima -- °F
Precip. -- in
Pressione 30.33 in
Visibilità 10.0 miglia
Nuvole Coperto 2100 ft
Raffreddamento del vento 32 °F
Punto di rugiada 22 °F
Umidità 68%
Piovosità 0.00 in
Spessore del manto nevoso Non disponibile.
7:07 AM 4:21 PM
Luna crescente, 15% visible
METAR KBUU 031515Z AUTO 00000KT 10SM OVC021 M01/M05 A3033 RMK AO2 T10081052
Pressione 30.33 in
Visibilità 10.0 miglia
Nuvole Coperto 2100 ft
Raffreddamento del vento 32 °F
Punto di rugiada 22 °F
Umidità 68%
Piovosità 0.00 in
Spessore del manto nevoso Non disponibile.
7:07 AM 4:21 PM
Luna crescente, 15% visible
METAR KBUU 031515Z AUTO 00000KT 10SM OVC021 M01/M05 A3033 RMK AO2 T10081052

10-Day Weather Forecast

Almanac

Astronomia

Dec. 03, 2016 Alba Tramonto
Ora attuale
Crepuscolo civile
Crepuscolo nautico
Crepuscolo astronomico
Luna
Estensione della luce visibile
Lunghezza del giorno
Tomorrow will be .
, % of the Moon is Illuminated

Gli estremi di oggi

State Highs State Lows

Community

WunderPhotos

Upload Photos

1,955,425 foto caricate!

WunderBlog® & News

Nearby

Qualità dell'aria

  Qualità dell'aria Indice AQ Inquinante
Not available.

Profondità neve

Stazione Profondità Altitudine

Attività sismica

Città  Distanza Mag. Data & Ora
Minimo Magnitudo Mostrato è 2.5.

Temperature delle acque costiere

Località Temperatura

Stations

Stazioni meteo nelle vicinanze

Ubicazione della stazione Temp. Raffreddamento del vento Punto di rugiada Umidità Vento Precip. Alt. Aggiornato Tipo
                   

Watches & Warnings

There are currently no watches in effect.